Observations for ODIHAM RAF, United Kingdom (EGVO)

EGVO 260450Z AUTO 19001KT 9999 NCD 14/13 Q1018  
EGVO 260350Z AUTO 14001KT 9999 NCD 14/12 Q1018  
EGVO 260250Z AUTO 24001KT 9999 NCD 15/13 Q1018  
EGVO 260150Z AUTO 11003KT 9999 NCD 15/14 Q1019  
EGVO 260050Z AUTO 10004KT 9999 NCD 15/14 Q1019  
EGVO 252350Z AUTO 21001KT 9999 NCD 15/12 Q1019  
EGVO 252250Z AUTO 21003KT 9999 NCD 19/14 Q1019  
EGVO 252150Z AUTO 23007KT 9999 NCD 20/14 Q1019  
EGVO 252050Z AUTO 15004KT 9999 NCD 19/13 Q1019  
EGVO 251950Z AUTO 15005KT 9999 NCD 19/13 Q1019  
EGVO 251850Z AUTO 19004KT 9999 NCD 24/14 Q1018  
EGVO 251750Z AUTO 17006KT 9999 NCD 27/13 Q1018  
EGVO 251650Z AUTO 17009KT 9999 NCD 28/13 Q1018  
EGVO 251550Z AUTO 15011KT 9999 NCD 30/11 Q1018  
EGVO 251450Z AUTO 14012KT 9999 NCD 30/11 Q1017  
EGVO 251350Z AUTO 16011KT 9999 NCD 30/12 Q1018  
EGVO 251250Z AUTO 15010KT 9999 NCD 30/13 Q1018  
EGVO 251150Z AUTO 14009KT 9999 NCD 29/14 Q1018  
EGVO 251050Z AUTO 14007KT 9999 FEW100/// 29/16 Q1018
EGVO 250950Z AUTO 15005KT 9999 FEW100/// 26/15 Q1018
EGVO 250850Z AUTO 10004KT 9999 FEW110/// 23/16 Q1018
EGVO 250750Z AUTO 10005KT 9999 FEW100/// 19/15 Q1017
EGVO 250650Z AUTO 10006KT 9999 SCT110/// 18/14 Q1017
EGVO 250550Z AUTO 08003KT 9999 FEW100/// 14/12 Q1017
EGVO 250450Z AUTO 09003KT 9999 NCD 15/12 Q1017